sensor_id;sensor_type;location;lat;lon;timestamp;P1;durP1;ratioP1;P2;durP2;ratioP2
15996;SDS011;8103;51.340;12.326;2022-10-19T00:01:11;14.60;;;8.25;;
15996;SDS011;8103;51.340;12.326;2022-10-19T00:03:51;15.10;;;9.65;;
15996;SDS011;8103;51.340;12.326;2022-10-19T00:08:59;11.00;;;8.45;;
15996;SDS011;8103;51.340;12.326;2022-10-19T00:11:37;14.23;;;8.38;;
15996;SDS011;8103;51.340;12.326;2022-10-19T00:14:07;13.68;;;9.40;;
15996;SDS011;8103;51.340;12.326;2022-10-19T00:16:39;12.73;;;9.27;;
15996;SDS011;8103;51.340;12.326;2022-10-19T00:19:10;17.67;;;9.93;;
15996;SDS011;8103;51.340;12.326;2022-10-19T00:21:44;14.30;;;9.02;;
15996;SDS011;8103;51.340;12.326;2022-10-19T00:24:11;14.15;;;8.88;;
15996;SDS011;8103;51.340;12.326;2022-10-19T00:26:38;13.20;;;8.60;;
15996;SDS011;8103;51.340;12.326;2022-10-19T00:29:05;22.77;;;10.15;;
15996;SDS011;8103;51.340;12.326;2022-10-19T00:31:33;13.50;;;8.38;;
15996;SDS011;8103;51.340;12.326;2022-10-19T00:34:00;14.90;;;9.25;;
15996;SDS011;8103;51.340;12.326;2022-10-19T00:36:28;11.63;;;8.18;;
15996;SDS011;8103;51.340;12.326;2022-10-19T00:39:02;9.52;;;7.15;;
15996;SDS011;8103;51.340;12.326;2022-10-19T00:41:32;13.75;;;8.30;;
15996;SDS011;8103;51.340;12.326;2022-10-19T00:46:34;15.50;;;9.43;;
15996;SDS011;8103;51.340;12.326;2022-10-19T00:49:11;12.05;;;8.05;;
15996;SDS011;8103;51.340;12.326;2022-10-19T00:51:52;11.65;;;7.90;;
15996;SDS011;8103;51.340;12.326;2022-10-19T00:54:23;13.77;;;8.32;;
15996;SDS011;8103;51.340;12.326;2022-10-19T00:56:52;14.38;;;8.63;;
15996;SDS011;8103;51.340;12.326;2022-10-19T00:59:23;11.40;;;8.02;;
15996;SDS011;8103;51.340;12.326;2022-10-19T01:01:53;18.58;;;8.68;;
15996;SDS011;8103;51.340;12.326;2022-10-19T01:04:20;12.00;;;7.45;;
15996;SDS011;8103;51.340;12.326;2022-10-19T01:06:50;9.63;;;8.00;;
15996;SDS011;8103;51.340;12.326;2022-10-19T01:09:19;9.15;;;7.05;;
15996;SDS011;8103;51.340;12.326;2022-10-19T01:27:20;13.02;;;7.18;;
15996;SDS011;8103;51.340;12.326;2022-10-19T01:30:07;11.50;;;7.53;;
15996;SDS011;8103;51.340;12.326;2022-10-19T01:32:56;9.35;;;6.65;;
15996;SDS011;8103;51.340;12.326;2022-10-19T01:35:36;11.35;;;6.78;;
15996;SDS011;8103;51.340;12.326;2022-10-19T01:38:28;13.43;;;6.80;;
15996;SDS011;8103;51.340;12.326;2022-10-19T01:41:19;14.30;;;7.90;;
15996;SDS011;8103;51.340;12.326;2022-10-19T01:46:37;13.40;;;7.40;;
15996;SDS011;8103;51.340;12.326;2022-10-19T01:51:49;13.63;;;7.07;;
15996;SDS011;8103;51.340;12.326;2022-10-19T01:54:29;15.38;;;6.97;;
15996;SDS011;8103;51.340;12.326;2022-10-19T01:57:04;16.70;;;7.25;;
15996;SDS011;8103;51.340;12.326;2022-10-19T01:59:35;9.75;;;7.32;;
15996;SDS011;8103;51.340;12.326;2022-10-19T02:02:07;11.18;;;6.63;;
15996;SDS011;8103;51.340;12.326;2022-10-19T02:04:38;19.08;;;8.00;;
15996;SDS011;8103;51.340;12.326;2022-10-19T02:07:06;12.20;;;6.35;;
15996;SDS011;8103;51.340;12.326;2022-10-19T02:09:36;9.73;;;6.05;;
15996;SDS011;8103;51.340;12.326;2022-10-19T02:12:05;13.88;;;7.35;;
15996;SDS011;8103;51.340;12.326;2022-10-19T02:14:38;19.13;;;8.10;;
15996;SDS011;8103;51.340;12.326;2022-10-19T02:17:12;11.55;;;6.95;;
15996;SDS011;8103;51.340;12.326;2022-10-19T02:19:50;8.90;;;5.70;;
15996;SDS011;8103;51.340;12.326;2022-10-19T02:22:20;13.85;;;7.07;;
15996;SDS011;8103;51.340;12.326;2022-10-19T02:24:48;9.73;;;7.25;;
15996;SDS011;8103;51.340;12.326;2022-10-19T02:27:16;11.77;;;6.55;;
15996;SDS011;8103;51.340;12.326;2022-10-19T02:29:44;7.78;;;6.30;;
15996;SDS011;8103;51.340;12.326;2022-10-19T02:32:11;12.05;;;7.05;;
15996;SDS011;8103;51.340;12.326;2022-10-19T02:34:38;7.50;;;6.18;;
15996;SDS011;8103;51.340;12.326;2022-10-19T02:37:06;12.57;;;6.82;;
15996;SDS011;8103;51.340;12.326;2022-10-19T02:39:33;12.23;;;7.10;;
15996;SDS011;8103;51.340;12.326;2022-10-19T02:42:09;15.05;;;7.05;;
15996;SDS011;8103;51.340;12.326;2022-10-19T02:44:46;12.80;;;6.85;;
15996;SDS011;8103;51.340;12.326;2022-10-19T02:47:35;15.40;;;6.72;;
15996;SDS011;8103;51.340;12.326;2022-10-19T02:50:12;15.90;;;8.80;;
15996;SDS011;8103;51.340;12.326;2022-10-19T02:52:40;12.38;;;7.13;;
15996;SDS011;8103;51.340;12.326;2022-10-19T02:55:07;16.38;;;8.55;;
15996;SDS011;8103;51.340;12.326;2022-10-19T02:57:35;15.43;;;8.07;;
15996;SDS011;8103;51.340;12.326;2022-10-19T03:00:04;12.02;;;7.43;;
15996;SDS011;8103;51.340;12.326;2022-10-19T03:02:32;16.77;;;6.75;;
15996;SDS011;8103;51.340;12.326;2022-10-19T03:04:59;12.57;;;7.80;;
15996;SDS011;8103;51.340;12.326;2022-10-19T03:07:26;13.95;;;7.30;;
15996;SDS011;8103;51.340;12.326;2022-10-19T03:09:53;12.52;;;7.53;;
15996;SDS011;8103;51.340;12.326;2022-10-19T03:12:20;14.18;;;7.93;;
15996;SDS011;8103;51.340;12.326;2022-10-19T03:14:47;15.20;;;7.72;;
15996;SDS011;8103;51.340;12.326;2022-10-19T03:17:14;13.00;;;7.35;;
15996;SDS011;8103;51.340;12.326;2022-10-19T03:19:41;12.48;;;6.28;;
15996;SDS011;8103;51.340;12.326;2022-10-19T03:22:12;14.27;;;7.53;;
15996;SDS011;8103;51.340;12.326;2022-10-19T03:24:40;8.48;;;7.03;;
15996;SDS011;8103;51.340;12.326;2022-10-19T03:27:07;13.63;;;6.40;;
15996;SDS011;8103;51.340;12.326;2022-10-19T03:29:34;9.63;;;6.05;;
15996;SDS011;8103;51.340;12.326;2022-10-19T03:32:01;11.68;;;6.50;;
15996;SDS011;8103;51.340;12.326;2022-10-19T03:34:28;10.27;;;6.05;;
15996;SDS011;8103;51.340;12.326;2022-10-19T03:36:55;10.63;;;6.55;;
15996;SDS011;8103;51.340;12.326;2022-10-19T03:39:24;8.77;;;6.47;;
15996;SDS011;8103;51.340;12.326;2022-10-19T03:41:51;11.18;;;5.65;;
15996;SDS011;8103;51.340;12.326;2022-10-19T03:44:18;10.10;;;5.75;;
15996;SDS011;8103;51.340;12.326;2022-10-19T03:46:46;9.30;;;5.13;;
15996;SDS011;8103;51.340;12.326;2022-10-19T03:49:13;11.32;;;6.35;;
15996;SDS011;8103;51.340;12.326;2022-10-19T03:51:40;8.40;;;5.63;;
15996;SDS011;8103;51.340;12.326;2022-10-19T03:54:10;8.02;;;5.55;;
15996;SDS011;8103;51.340;12.326;2022-10-19T03:56:40;12.82;;;5.90;;
15996;SDS011;8103;51.340;12.326;2022-10-19T03:59:09;9.02;;;5.70;;
15996;SDS011;8103;51.340;12.326;2022-10-19T04:01:41;7.80;;;5.47;;
15996;SDS011;8103;51.340;12.326;2022-10-19T04:04:14;8.73;;;5.07;;
15996;SDS011;8103;51.340;12.326;2022-10-19T04:06:44;11.05;;;4.97;;
15996;SDS011;8103;51.340;12.326;2022-10-19T04:09:17;9.55;;;5.07;;
15996;SDS011;8103;51.340;12.326;2022-10-19T04:11:47;11.00;;;5.20;;
15996;SDS011;8103;51.340;12.326;2022-10-19T04:14:16;8.52;;;5.50;;
15996;SDS011;8103;51.340;12.326;2022-10-19T04:16:51;10.93;;;5.47;;
15996;SDS011;8103;51.340;12.326;2022-10-19T04:19:18;8.13;;;5.00;;
15996;SDS011;8103;51.340;12.326;2022-10-19T04:21:46;9.00;;;5.40;;
15996;SDS011;8103;51.340;12.326;2022-10-19T04:24:16;10.20;;;5.50;;
15996;SDS011;8103;51.340;12.326;2022-10-19T04:26:51;8.48;;;4.65;;
15996;SDS011;8103;51.340;12.326;2022-10-19T04:29:20;8.73;;;5.72;;
15996;SDS011;8103;51.340;12.326;2022-10-19T04:31:51;12.95;;;5.40;;
15996;SDS011;8103;51.340;12.326;2022-10-19T04:34:19;10.80;;;5.35;;
15996;SDS011;8103;51.340;12.326;2022-10-19T04:36:46;9.02;;;5.32;;
15996;SDS011;8103;51.340;12.326;2022-10-19T04:39:13;12.02;;;5.30;;
15996;SDS011;8103;51.340;12.326;2022-10-19T04:41:40;9.75;;;5.25;;
15996;SDS011;8103;51.340;12.326;2022-10-19T04:44:08;18.50;;;5.30;;
15996;SDS011;8103;51.340;12.326;2022-10-19T04:46:35;13.82;;;6.55;;
15996;SDS011;8103;51.340;12.326;2022-10-19T04:49:03;7.45;;;4.00;;
15996;SDS011;8103;51.340;12.326;2022-10-19T04:51:32;15.75;;;5.32;;
15996;SDS011;8103;51.340;12.326;2022-10-19T04:54:01;7.05;;;3.95;;
15996;SDS011;8103;51.340;12.326;2022-10-19T04:56:28;9.38;;;4.43;;
15996;SDS011;8103;51.340;12.326;2022-10-19T04:58:58;14.77;;;5.15;;
15996;SDS011;8103;51.340;12.326;2022-10-19T05:01:27;9.93;;;4.13;;
15996;SDS011;8103;51.340;12.326;2022-10-19T05:03:59;10.13;;;4.75;;
15996;SDS011;8103;51.340;12.326;2022-10-19T05:06:28;14.95;;;4.63;;
15996;SDS011;8103;51.340;12.326;2022-10-19T05:08:57;8.38;;;4.93;;
15996;SDS011;8103;51.340;12.326;2022-10-19T05:11:25;13.65;;;5.63;;
15996;SDS011;8103;51.340;12.326;2022-10-19T05:13:52;5.90;;;4.90;;
15996;SDS011;8103;51.340;12.326;2022-10-19T05:16:20;11.75;;;5.35;;
15996;SDS011;8103;51.340;12.326;2022-10-19T05:18:49;14.73;;;5.60;;
15996;SDS011;8103;51.340;12.326;2022-10-19T05:21:24;12.27;;;6.15;;
15996;SDS011;8103;51.340;12.326;2022-10-19T05:23:54;13.55;;;6.60;;
15996;SDS011;8103;51.340;12.326;2022-10-19T05:26:22;12.38;;;6.43;;
15996;SDS011;8103;51.340;12.326;2022-10-19T05:28:53;9.13;;;5.40;;
15996;SDS011;8103;51.340;12.326;2022-10-19T05:31:29;11.00;;;6.00;;
15996;SDS011;8103;51.340;12.326;2022-10-19T05:33:58;13.90;;;6.57;;
15996;SDS011;8103;51.340;12.326;2022-10-19T05:39:15;16.10;;;7.03;;
15996;SDS011;8103;51.340;12.326;2022-10-19T05:41:43;7.32;;;4.95;;
15996;SDS011;8103;51.340;12.326;2022-10-19T05:44:13;9.45;;;4.45;;
15996;SDS011;8103;51.340;12.326;2022-10-19T05:46:46;9.43;;;5.93;;
15996;SDS011;8103;51.340;12.326;2022-10-19T05:49:15;15.20;;;5.13;;
15996;SDS011;8103;51.340;12.326;2022-10-19T05:51:44;13.80;;;4.75;;
15996;SDS011;8103;51.340;12.326;2022-10-19T05:54:12;14.95;;;5.65;;
15996;SDS011;8103;51.340;12.326;2022-10-19T05:56:40;12.55;;;6.15;;
15996;SDS011;8103;51.340;12.326;2022-10-19T05:59:09;11.82;;;5.05;;
15996;SDS011;8103;51.340;12.326;2022-10-19T06:01:40;16.08;;;4.72;;
15996;SDS011;8103;51.340;12.326;2022-10-19T06:04:07;12.52;;;5.43;;
15996;SDS011;8103;51.340;12.326;2022-10-19T06:06:36;13.52;;;5.63;;
15996;SDS011;8103;51.340;12.326;2022-10-19T06:09:03;10.55;;;4.72;;
15996;SDS011;8103;51.340;12.326;2022-10-19T06:11:31;11.23;;;4.97;;
15996;SDS011;8103;51.340;12.326;2022-10-19T06:14:03;9.63;;;4.93;;
15996;SDS011;8103;51.340;12.326;2022-10-19T06:16:34;10.95;;;5.88;;
15996;SDS011;8103;51.340;12.326;2022-10-19T06:19:01;8.18;;;5.28;;
15996;SDS011;8103;51.340;12.326;2022-10-19T06:21:29;9.57;;;3.95;;
15996;SDS011;8103;51.340;12.326;2022-10-19T06:24:00;8.65;;;5.18;;
15996;SDS011;8103;51.340;12.326;2022-10-19T06:26:31;8.82;;;4.50;;
15996;SDS011;8103;51.340;12.326;2022-10-19T06:29:00;11.60;;;4.80;;
15996;SDS011;8103;51.340;12.326;2022-10-19T06:31:30;12.38;;;5.65;;
15996;SDS011;8103;51.340;12.326;2022-10-19T06:33:59;12.07;;;4.80;;
15996;SDS011;8103;51.340;12.326;2022-10-19T06:36:27;14.30;;;5.22;;
15996;SDS011;8103;51.340;12.326;2022-10-19T06:38:56;12.25;;;5.32;;
15996;SDS011;8103;51.340;12.326;2022-10-19T06:41:25;8.70;;;4.82;;
15996;SDS011;8103;51.340;12.326;2022-10-19T06:43:53;13.77;;;5.70;;
15996;SDS011;8103;51.340;12.326;2022-10-19T06:46:22;9.88;;;5.93;;
15996;SDS011;8103;51.340;12.326;2022-10-19T06:48:54;12.27;;;5.97;;
15996;SDS011;8103;51.340;12.326;2022-10-19T06:51:24;8.73;;;5.05;;
15996;SDS011;8103;51.340;12.326;2022-10-19T06:53:54;11.60;;;5.13;;
15996;SDS011;8103;51.340;12.326;2022-10-19T06:56:23;11.85;;;5.25;;
15996;SDS011;8103;51.340;12.326;2022-10-19T06:58:51;9.43;;;4.65;;
15996;SDS011;8103;51.340;12.326;2022-10-19T07:01:19;10.10;;;4.78;;
15996;SDS011;8103;51.340;12.326;2022-10-19T07:03:48;9.63;;;4.53;;
15996;SDS011;8103;51.340;12.326;2022-10-19T07:06:17;7.22;;;4.07;;
15996;SDS011;8103;51.340;12.326;2022-10-19T07:08:45;13.90;;;4.88;;
15996;SDS011;8103;51.340;12.326;2022-10-19T07:11:16;9.10;;;3.88;;
15996;SDS011;8103;51.340;12.326;2022-10-19T07:13:47;8.75;;;4.40;;
15996;SDS011;8103;51.340;12.326;2022-10-19T07:16:15;6.65;;;3.60;;
15996;SDS011;8103;51.340;12.326;2022-10-19T07:18:46;10.27;;;5.55;;
15996;SDS011;8103;51.340;12.326;2022-10-19T07:21:15;5.80;;;3.33;;
15996;SDS011;8103;51.340;12.326;2022-10-19T07:23:45;10.50;;;4.03;;
15996;SDS011;8103;51.340;12.326;2022-10-19T07:26:14;9.43;;;3.83;;
15996;SDS011;8103;51.340;12.326;2022-10-19T07:28:48;9.60;;;4.18;;
15996;SDS011;8103;51.340;12.326;2022-10-19T07:31:20;8.27;;;4.10;;
15996;SDS011;8103;51.340;12.326;2022-10-19T07:33:53;7.20;;;4.03;;
15996;SDS011;8103;51.340;12.326;2022-10-19T07:36:23;5.85;;;2.95;;
15996;SDS011;8103;51.340;12.326;2022-10-19T07:38:52;11.23;;;3.80;;
15996;SDS011;8103;51.340;12.326;2022-10-19T07:41:22;5.35;;;3.67;;
15996;SDS011;8103;51.340;12.326;2022-10-19T07:43:51;8.45;;;4.25;;
15996;SDS011;8103;51.340;12.326;2022-10-19T07:46:20;17.23;;;5.80;;
15996;SDS011;8103;51.340;12.326;2022-10-19T07:48:51;8.95;;;4.20;;
15996;SDS011;8103;51.340;12.326;2022-10-19T07:51:19;10.73;;;3.85;;
15996;SDS011;8103;51.340;12.326;2022-10-19T07:53:47;8.60;;;4.30;;
15996;SDS011;8103;51.340;12.326;2022-10-19T07:56:19;16.48;;;4.68;;
15996;SDS011;8103;51.340;12.326;2022-10-19T07:58:49;9.60;;;4.97;;
15996;SDS011;8103;51.340;12.326;2022-10-19T08:01:20;6.88;;;3.70;;
15996;SDS011;8103;51.340;12.326;2022-10-19T08:03:52;5.40;;;3.47;;
15996;SDS011;8103;51.340;12.326;2022-10-19T08:06:40;8.48;;;4.10;;
15996;SDS011;8103;51.340;12.326;2022-10-19T08:09:07;6.97;;;3.58;;
15996;SDS011;8103;51.340;12.326;2022-10-19T08:11:36;5.95;;;3.60;;
15996;SDS011;8103;51.340;12.326;2022-10-19T08:14:03;6.22;;;3.92;;
15996;SDS011;8103;51.340;12.326;2022-10-19T08:16:34;11.95;;;4.70;;
15996;SDS011;8103;51.340;12.326;2022-10-19T08:19:06;8.55;;;3.55;;
15996;SDS011;8103;51.340;12.326;2022-10-19T08:21:37;7.90;;;4.70;;
15996;SDS011;8103;51.340;12.326;2022-10-19T08:24:07;15.35;;;4.30;;
15996;SDS011;8103;51.340;12.326;2022-10-19T08:26:36;9.98;;;3.90;;
15996;SDS011;8103;51.340;12.326;2022-10-19T08:29:06;8.52;;;4.00;;
15996;SDS011;8103;51.340;12.326;2022-10-19T08:31:43;8.93;;;3.58;;
15996;SDS011;8103;51.340;12.326;2022-10-19T08:34:12;9.07;;;4.03;;
15996;SDS011;8103;51.340;12.326;2022-10-19T08:36:40;4.32;;;3.22;;
15996;SDS011;8103;51.340;12.326;2022-10-19T08:39:07;5.13;;;2.67;;
15996;SDS011;8103;51.340;12.326;2022-10-19T08:44:30;7.32;;;3.40;;
15996;SDS011;8103;51.340;12.326;2022-10-19T08:50:24;4.07;;;3.00;;
15996;SDS011;8103;51.340;12.326;2022-10-19T08:53:01;6.95;;;3.28;;
15996;SDS011;8103;51.340;12.326;2022-10-19T08:56:12;9.77;;;3.40;;
15996;SDS011;8103;51.340;12.326;2022-10-19T08:59:30;6.05;;;2.80;;
15996;SDS011;8103;51.340;12.326;2022-10-19T09:02:15;7.78;;;3.33;;
15996;SDS011;8103;51.340;12.326;2022-10-19T09:05:04;6.43;;;2.95;;
15996;SDS011;8103;51.340;12.326;2022-10-19T09:07:52;4.45;;;2.70;;
15996;SDS011;8103;51.340;12.326;2022-10-19T09:10:53;5.43;;;2.78;;
15996;SDS011;8103;51.340;12.326;2022-10-19T09:13:29;3.88;;;2.65;;
15996;SDS011;8103;51.340;12.326;2022-10-19T09:16:26;7.70;;;2.85;;
15996;SDS011;8103;51.340;12.326;2022-10-19T09:18:53;7.00;;;2.75;;
15996;SDS011;8103;51.340;12.326;2022-10-19T09:21:22;5.35;;;3.42;;
15996;SDS011;8103;51.340;12.326;2022-10-19T09:24:07;6.18;;;3.40;;
15996;SDS011;8103;51.340;12.326;2022-10-19T09:27:00;5.72;;;2.83;;
15996;SDS011;8103;51.340;12.326;2022-10-19T09:29:35;3.90;;;2.33;;
15996;SDS011;8103;51.340;12.326;2022-10-19T09:32:14;5.97;;;2.63;;
15996;SDS011;8103;51.340;12.326;2022-10-19T09:35:25;9.15;;;3.08;;
15996;SDS011;8103;51.340;12.326;2022-10-19T09:37:59;6.93;;;2.53;;
15996;SDS011;8103;51.340;12.326;2022-10-19T09:40:27;6.35;;;3.03;;
15996;SDS011;8103;51.340;12.326;2022-10-19T09:42:56;5.85;;;2.35;;
15996;SDS011;8103;51.340;12.326;2022-10-19T09:48:11;4.55;;;1.60;;
15996;SDS011;8103;51.340;12.326;2022-10-19T09:51:09;2.83;;;1.25;;
15996;SDS011;8103;51.340;12.326;2022-10-19T09:53:54;2.60;;;1.50;;
15996;SDS011;8103;51.340;12.326;2022-10-19T09:56:23;3.47;;;1.65;;
15996;SDS011;8103;51.340;12.326;2022-10-19T09:58:54;3.53;;;1.60;;
15996;SDS011;8103;51.340;12.326;2022-10-19T10:01:31;2.78;;;1.25;;
15996;SDS011;8103;51.340;12.326;2022-10-19T10:04:13;1.95;;;1.17;;
15996;SDS011;8103;51.340;12.326;2022-10-19T10:06:43;3.60;;;1.20;;
15996;SDS011;8103;51.340;12.326;2022-10-19T10:09:17;2.97;;;1.10;;
15996;SDS011;8103;51.340;12.326;2022-10-19T10:11:49;1.50;;;0.80;;
15996;SDS011;8103;51.340;12.326;2022-10-19T10:14:31;2.53;;;1.10;;
15996;SDS011;8103;51.340;12.326;2022-10-19T10:17:02;3.42;;;1.65;;
15996;SDS011;8103;51.340;12.326;2022-10-19T10:20:01;4.93;;;1.40;;
15996;SDS011;8103;51.340;12.326;2022-10-19T10:22:51;2.92;;;0.95;;
15996;SDS011;8103;51.340;12.326;2022-10-19T10:25:24;5.20;;;1.60;;
15996;SDS011;8103;51.340;12.326;2022-10-19T10:28:02;3.45;;;1.25;;
15996;SDS011;8103;51.340;12.326;2022-10-19T10:30:45;4.13;;;1.20;;
15996;SDS011;8103;51.340;12.326;2022-10-19T10:33:14;2.13;;;1.92;;
15996;SDS011;8103;51.340;12.326;2022-10-19T10:36:09;5.15;;;2.00;;
15996;SDS011;8103;51.340;12.326;2022-10-19T10:41:18;4.78;;;1.50;;
15996;SDS011;8103;51.340;12.326;2022-10-19T10:43:58;1.40;;;1.05;;
15996;SDS011;8103;51.340;12.326;2022-10-19T10:46:33;3.78;;;1.50;;
15996;SDS011;8103;51.340;12.326;2022-10-19T10:49:26;3.63;;;1.63;;
15996;SDS011;8103;51.340;12.326;2022-10-19T10:52:00;3.35;;;1.27;;
15996;SDS011;8103;51.340;12.326;2022-10-19T10:54:33;1.80;;;1.10;;
15996;SDS011;8103;51.340;12.326;2022-10-19T11:02:39;2.80;;;1.13;;
15996;SDS011;8103;51.340;12.326;2022-10-19T11:05:25;4.30;;;1.40;;
15996;SDS011;8103;51.340;12.326;2022-10-19T11:13:58;2.53;;;1.27;;
15996;SDS011;8103;51.340;12.326;2022-10-19T11:16:51;0.70;;;0.70;;
15996;SDS011;8103;51.340;12.326;2022-10-19T11:19:23;6.47;;;0.80;;
15996;SDS011;8103;51.340;12.326;2022-10-19T11:21:56;2.42;;;0.80;;
15996;SDS011;8103;51.340;12.326;2022-10-19T11:27:48;1.48;;;1.00;;
15996;SDS011;8103;51.340;12.326;2022-10-19T11:30:40;3.15;;;1.00;;
15996;SDS011;8103;51.340;12.326;2022-10-19T11:33:35;3.05;;;0.85;;
15996;SDS011;8103;51.340;12.326;2022-10-19T11:36:33;2.28;;;0.80;;
15996;SDS011;8103;51.340;12.326;2022-10-19T11:48:17;2.10;;;0.80;;
15996;SDS011;8103;51.340;12.326;2022-10-19T11:50:54;1.85;;;0.77;;
15996;SDS011;8103;51.340;12.326;2022-10-19T12:14:34;5.35;;;1.20;;
15996;SDS011;8103;51.340;12.326;2022-10-19T12:17:13;1.90;;;1.02;;
15996;SDS011;8103;51.340;12.326;2022-10-19T12:19:49;1.30;;;0.80;;
15996;SDS011;8103;51.340;12.326;2022-10-19T12:22:24;2.38;;;1.30;;
15996;SDS011;8103;51.340;12.326;2022-10-19T12:24:57;3.42;;;1.00;;
15996;SDS011;8103;51.340;12.326;2022-10-19T12:27:29;5.13;;;0.95;;
15996;SDS011;8103;51.340;12.326;2022-10-19T12:30:07;3.08;;;0.80;;
15996;SDS011;8103;51.340;12.326;2022-10-19T12:35:54;2.55;;;1.02;;
15996;SDS011;8103;51.340;12.326;2022-10-19T12:38:40;3.40;;;1.05;;
15996;SDS011;8103;51.340;12.326;2022-10-19T12:41:28;1.55;;;0.80;;
15996;SDS011;8103;51.340;12.326;2022-10-19T12:47:11;1.25;;;0.70;;
15996;SDS011;8103;51.340;12.326;2022-10-19T12:49:45;2.50;;;0.77;;
15996;SDS011;8103;51.340;12.326;2022-10-19T12:52:32;3.05;;;1.00;;
15996;SDS011;8103;51.340;12.326;2022-10-19T12:57:47;1.73;;;0.57;;
15996;SDS011;8103;51.340;12.326;2022-10-19T13:00:29;1.20;;;0.88;;
15996;SDS011;8103;51.340;12.326;2022-10-19T13:03:06;0.98;;;0.60;;
15996;SDS011;8103;51.340;12.326;2022-10-19T13:05:56;2.05;;;0.77;;
15996;SDS011;8103;51.340;12.326;2022-10-19T13:08:30;1.48;;;0.75;;
15996;SDS011;8103;51.340;12.326;2022-10-19T13:11:13;1.20;;;0.73;;
15996;SDS011;8103;51.340;12.326;2022-10-19T13:14:02;4.90;;;1.88;;
15996;SDS011;8103;51.340;12.326;2022-10-19T13:21:42;2.90;;;1.60;;
15996;SDS011;8103;51.340;12.326;2022-10-19T13:43:22;2.50;;;1.13;;
15996;SDS011;8103;51.340;12.326;2022-10-19T13:52:20;3.38;;;0.65;;
15996;SDS011;8103;51.340;12.326;2022-10-19T14:07:15;1.05;;;0.80;;
15996;SDS011;8103;51.340;12.326;2022-10-19T14:09:58;3.08;;;1.65;;
15996;SDS011;8103;51.340;12.326;2022-10-19T14:12:51;2.60;;;1.55;;
15996;SDS011;8103;51.340;12.326;2022-10-19T14:17:59;17.23;;;11.40;;
15996;SDS011;8103;51.340;12.326;2022-10-19T14:20:29;18.33;;;12.55;;
15996;SDS011;8103;51.340;12.326;2022-10-19T14:28:30;43.47;;;28.58;;
15996;SDS011;8103;51.340;12.326;2022-10-19T14:31:02;35.10;;;22.50;;
15996;SDS011;8103;51.340;12.326;2022-10-19T14:33:39;21.35;;;15.75;;
15996;SDS011;8103;51.340;12.326;2022-10-19T14:36:13;20.88;;;14.13;;
15996;SDS011;8103;51.340;12.326;2022-10-19T14:38:47;20.02;;;12.82;;
15996;SDS011;8103;51.340;12.326;2022-10-19T14:41:32;9.23;;;5.97;;
15996;SDS011;8103;51.340;12.326;2022-10-19T14:44:20;7.43;;;4.63;;
15996;SDS011;8103;51.340;12.326;2022-10-19T14:47:20;8.73;;;4.47;;
15996;SDS011;8103;51.340;12.326;2022-10-19T14:49:52;20.90;;;13.70;;
15996;SDS011;8103;51.340;12.326;2022-10-19T14:52:21;18.48;;;12.35;;
15996;SDS011;8103;51.340;12.326;2022-10-19T14:55:04;5.45;;;4.78;;
15996;SDS011;8103;51.340;12.326;2022-10-19T14:57:44;49.20;;;37.97;;
15996;SDS011;8103;51.340;12.326;2022-10-19T15:00:17;65.65;;;54.15;;
15996;SDS011;8103;51.340;12.326;2022-10-19T15:02:56;41.42;;;33.20;;
15996;SDS011;8103;51.340;12.326;2022-10-19T15:05:32;30.73;;;24.88;;
15996;SDS011;8103;51.340;12.326;2022-10-19T15:08:45;23.20;;;19.08;;
15996;SDS011;8103;51.340;12.326;2022-10-19T15:11:26;13.50;;;11.23;;
15996;SDS011;8103;51.340;12.326;2022-10-19T15:16:48;4.68;;;3.97;;
15996;SDS011;8103;51.340;12.326;2022-10-19T15:19:30;4.78;;;4.20;;
15996;SDS011;8103;51.340;12.326;2022-10-19T15:22:19;4.00;;;2.95;;
15996;SDS011;8103;51.340;12.326;2022-10-19T15:27:37;4.15;;;3.78;;
15996;SDS011;8103;51.340;12.326;2022-10-19T15:32:43;3.75;;;2.03;;
15996;SDS011;8103;51.340;12.326;2022-10-19T15:37:49;3.53;;;1.33;;
15996;SDS011;8103;51.340;12.326;2022-10-19T15:40:22;2.28;;;0.60;;
15996;SDS011;8103;51.340;12.326;2022-10-19T15:42:58;1.92;;;1.17;;
15996;SDS011;8103;51.340;12.326;2022-10-19T15:45:33;1.85;;;0.73;;
15996;SDS011;8103;51.340;12.326;2022-10-19T15:50:37;1.13;;;0.60;;
15996;SDS011;8103;51.340;12.326;2022-10-19T15:53:10;2.17;;;1.42;;
15996;SDS011;8103;51.340;12.326;2022-10-19T15:55:40;1.30;;;0.60;;
15996;SDS011;8103;51.340;12.326;2022-10-19T15:58:10;1.38;;;0.55;;
15996;SDS011;8103;51.340;12.326;2022-10-19T16:00:39;3.28;;;1.20;;
15996;SDS011;8103;51.340;12.326;2022-10-19T16:03:07;14.35;;;11.18;;
15996;SDS011;8103;51.340;12.326;2022-10-19T16:05:34;7.35;;;5.28;;
15996;SDS011;8103;51.340;12.326;2022-10-19T16:08:02;3.83;;;2.60;;
15996;SDS011;8103;51.340;12.326;2022-10-19T16:10:33;2.22;;;1.70;;
15996;SDS011;8103;51.340;12.326;2022-10-19T16:13:00;2.53;;;2.20;;
15996;SDS011;8103;51.340;12.326;2022-10-19T16:15:27;2.25;;;1.88;;
15996;SDS011;8103;51.340;12.326;2022-10-19T16:17:57;6.57;;;4.05;;
15996;SDS011;8103;51.340;12.326;2022-10-19T16:20:26;4.68;;;2.88;;
15996;SDS011;8103;51.340;12.326;2022-10-19T16:22:55;2.45;;;1.90;;
15996;SDS011;8103;51.340;12.326;2022-10-19T16:25:23;1.35;;;1.10;;
15996;SDS011;8103;51.340;12.326;2022-10-19T16:27:50;1.20;;;0.80;;
15996;SDS011;8103;51.340;12.326;2022-10-19T16:30:17;2.08;;;0.70;;
15996;SDS011;8103;51.340;12.326;2022-10-19T16:32:46;0.93;;;0.70;;
15996;SDS011;8103;51.340;12.326;2022-10-19T16:35:14;2.00;;;1.10;;
15996;SDS011;8103;51.340;12.326;2022-10-19T16:37:41;1.63;;;1.35;;
15996;SDS011;8103;51.340;12.326;2022-10-19T16:40:08;3.33;;;1.90;;
15996;SDS011;8103;51.340;12.326;2022-10-19T16:42:36;3.83;;;1.90;;
15996;SDS011;8103;51.340;12.326;2022-10-19T16:45:03;1.48;;;1.38;;
15996;SDS011;8103;51.340;12.326;2022-10-19T16:47:31;2.63;;;1.58;;
15996;SDS011;8103;51.340;12.326;2022-10-19T16:49:58;4.55;;;1.98;;
15996;SDS011;8103;51.340;12.326;2022-10-19T16:52:28;8.27;;;2.70;;
15996;SDS011;8103;51.340;12.326;2022-10-19T16:54:59;2.53;;;2.00;;
15996;SDS011;8103;51.340;12.326;2022-10-19T16:57:26;2.33;;;1.20;;
15996;SDS011;8103;51.340;12.326;2022-10-19T16:59:53;2.75;;;1.10;;
15996;SDS011;8103;51.340;12.326;2022-10-19T17:02:20;2.60;;;1.73;;
15996;SDS011;8103;51.340;12.326;2022-10-19T17:04:49;1.95;;;1.15;;
15996;SDS011;8103;51.340;12.326;2022-10-19T17:07:16;1.73;;;1.33;;
15996;SDS011;8103;51.340;12.326;2022-10-19T17:09:45;1.50;;;1.40;;
15996;SDS011;8103;51.340;12.326;2022-10-19T17:12:15;3.10;;;1.38;;
15996;SDS011;8103;51.340;12.326;2022-10-19T17:14:42;3.28;;;1.85;;
15996;SDS011;8103;51.340;12.326;2022-10-19T17:17:10;3.65;;;2.17;;
15996;SDS011;8103;51.340;12.326;2022-10-19T17:19:38;4.00;;;2.40;;
15996;SDS011;8103;51.340;12.326;2022-10-19T17:22:05;3.72;;;2.15;;
15996;SDS011;8103;51.340;12.326;2022-10-19T17:24:32;3.95;;;2.55;;
15996;SDS011;8103;51.340;12.326;2022-10-19T17:27:00;4.05;;;2.40;;
15996;SDS011;8103;51.340;12.326;2022-10-19T17:29:28;4.28;;;2.40;;
15996;SDS011;8103;51.340;12.326;2022-10-19T17:31:56;4.30;;;2.75;;
15996;SDS011;8103;51.340;12.326;2022-10-19T17:34:24;4.60;;;2.67;;
15996;SDS011;8103;51.340;12.326;2022-10-19T17:36:52;6.40;;;3.08;;
15996;SDS011;8103;51.340;12.326;2022-10-19T17:39:20;5.10;;;2.90;;
15996;SDS011;8103;51.340;12.326;2022-10-19T17:41:51;3.38;;;2.67;;
15996;SDS011;8103;51.340;12.326;2022-10-19T17:44:18;4.40;;;2.83;;
15996;SDS011;8103;51.340;12.326;2022-10-19T17:46:47;7.72;;;4.07;;
15996;SDS011;8103;51.340;12.326;2022-10-19T17:49:15;4.50;;;3.65;;
15996;SDS011;8103;51.340;12.326;2022-10-19T17:51:42;5.05;;;3.47;;
15996;SDS011;8103;51.340;12.326;2022-10-19T17:54:11;6.38;;;3.85;;
15996;SDS011;8103;51.340;12.326;2022-10-19T17:56:40;5.25;;;3.63;;